Terminal Aerodrome Forecast
Issued by NWS Cleveland, OH

Home | Current Version | Previous Version | Graphics & Text | Print | Product List | Glossary On
Versions: 1 2 3 4 5 6 7 8 9 10 11 12 13 14 15 16 17 18 19 20 21
919
FTUS41 KCLE 202330
TAFMFD
TAF
KMFD 202330Z 2100/2124 18012KT P6SM SCT100 WS020/21045KT
     FM211000 24018G28KT 5SM -SHRA OVC020
     FM211400 30014G22KT 3SM -SHRA OVC008
     FM211800 34010KT P6SM SCT012 OVC020=

USA.gov is the U.S. government's official web portal to all federal, state and local government web resources and services.